sensor_id;sensor_type;location;lat;lon;timestamp;P1;durP1;ratioP1;P2;durP2;ratioP2
38413;SDS011;24195;48.654;9.294;2022-09-03T00:00:51;2.30;;;2.10;;
38413;SDS011;24195;48.654;9.294;2022-09-03T00:03:26;2.10;;;2.00;;
38413;SDS011;24195;48.654;9.294;2022-09-03T00:06:14;2.70;;;2.20;;
38413;SDS011;24195;48.654;9.294;2022-09-03T00:08:50;2.73;;;2.57;;
38413;SDS011;24195;48.654;9.294;2022-09-03T00:11:25;2.47;;;2.37;;
38413;SDS011;24195;48.654;9.294;2022-09-03T00:13:58;2.27;;;2.07;;
38413;SDS011;24195;48.654;9.294;2022-09-03T00:16:29;2.10;;;2.00;;
38413;SDS011;24195;48.654;9.294;2022-09-03T00:19:01;4.70;;;2.47;;
38413;SDS011;24195;48.654;9.294;2022-09-03T00:21:38;2.40;;;2.30;;
38413;SDS011;24195;48.654;9.294;2022-09-03T00:24:09;2.60;;;2.40;;
38413;SDS011;24195;48.654;9.294;2022-09-03T00:26:38;2.03;;;1.93;;
38413;SDS011;24195;48.654;9.294;2022-09-03T00:29:10;4.30;;;2.50;;
38413;SDS011;24195;48.654;9.294;2022-09-03T00:31:42;2.20;;;2.00;;
38413;SDS011;24195;48.654;9.294;2022-09-03T00:34:25;2.80;;;2.27;;
38413;SDS011;24195;48.654;9.294;2022-09-03T00:36:54;2.30;;;2.10;;
38413;SDS011;24195;48.654;9.294;2022-09-03T00:39:21;2.90;;;2.30;;
38413;SDS011;24195;48.654;9.294;2022-09-03T00:55:52;2.00;;;1.90;;
38413;SDS011;24195;48.654;9.294;2022-09-03T00:58:46;2.40;;;2.23;;
38413;SDS011;24195;48.654;9.294;2022-09-03T01:04:34;2.40;;;2.20;;
38413;SDS011;24195;48.654;9.294;2022-09-03T01:07:12;2.07;;;1.90;;
38413;SDS011;24195;48.654;9.294;2022-09-03T01:09:45;2.47;;;2.37;;
38413;SDS011;24195;48.654;9.294;2022-09-03T01:15:16;2.23;;;2.13;;
38413;SDS011;24195;48.654;9.294;2022-09-03T01:18:08;2.30;;;2.10;;
38413;SDS011;24195;48.654;9.294;2022-09-03T01:21:10;2.33;;;2.23;;
38413;SDS011;24195;48.654;9.294;2022-09-03T01:24:13;2.20;;;2.00;;
38413;SDS011;24195;48.654;9.294;2022-09-03T01:32:01;2.77;;;2.20;;
38413;SDS011;24195;48.654;9.294;2022-09-03T01:43:57;2.60;;;2.40;;
38413;SDS011;24195;48.654;9.294;2022-09-03T01:46:40;2.13;;;2.03;;
38413;SDS011;24195;48.654;9.294;2022-09-03T01:49:22;4.07;;;2.30;;
38413;SDS011;24195;48.654;9.294;2022-09-03T01:52:13;2.20;;;2.10;;
38413;SDS011;24195;48.654;9.294;2022-09-03T01:54:47;2.23;;;2.13;;
38413;SDS011;24195;48.654;9.294;2022-09-03T02:00:18;2.53;;;2.13;;
38413;SDS011;24195;48.654;9.294;2022-09-03T02:02:45;2.63;;;2.03;;
38413;SDS011;24195;48.654;9.294;2022-09-03T02:05:14;2.40;;;2.30;;
38413;SDS011;24195;48.654;9.294;2022-09-03T02:07:49;2.17;;;2.07;;
38413;SDS011;24195;48.654;9.294;2022-09-03T02:13:06;2.70;;;2.50;;
38413;SDS011;24195;48.654;9.294;2022-09-03T02:15:34;2.60;;;2.50;;
38413;SDS011;24195;48.654;9.294;2022-09-03T02:18:02;4.00;;;2.60;;
38413;SDS011;24195;48.654;9.294;2022-09-03T02:20:34;2.53;;;2.40;;
38413;SDS011;24195;48.654;9.294;2022-09-03T02:23:01;2.40;;;2.20;;
38413;SDS011;24195;48.654;9.294;2022-09-03T02:25:31;2.53;;;2.33;;
38413;SDS011;24195;48.654;9.294;2022-09-03T02:28:02;2.53;;;2.33;;
38413;SDS011;24195;48.654;9.294;2022-09-03T02:30:29;4.13;;;2.33;;
38413;SDS011;24195;48.654;9.294;2022-09-03T02:32:55;3.30;;;3.10;;
38413;SDS011;24195;48.654;9.294;2022-09-03T02:35:21;2.60;;;2.50;;
38413;SDS011;24195;48.654;9.294;2022-09-03T02:37:46;2.70;;;2.50;;
38413;SDS011;24195;48.654;9.294;2022-09-03T02:40:12;3.17;;;2.83;;
38413;SDS011;24195;48.654;9.294;2022-09-03T02:42:38;2.30;;;2.10;;
38413;SDS011;24195;48.654;9.294;2022-09-03T02:47:38;4.73;;;2.57;;
38413;SDS011;24195;48.654;9.294;2022-09-03T02:50:08;2.93;;;2.63;;
38413;SDS011;24195;48.654;9.294;2022-09-03T02:52:34;4.77;;;2.60;;
38413;SDS011;24195;48.654;9.294;2022-09-03T02:55:00;4.00;;;2.90;;
38413;SDS011;24195;48.654;9.294;2022-09-03T02:57:25;3.40;;;2.70;;
38413;SDS011;24195;48.654;9.294;2022-09-03T02:59:52;2.23;;;2.13;;
38413;SDS011;24195;48.654;9.294;2022-09-03T03:02:18;2.53;;;2.43;;
38413;SDS011;24195;48.654;9.294;2022-09-03T03:04:43;2.83;;;2.60;;
38413;SDS011;24195;48.654;9.294;2022-09-03T03:07:09;3.17;;;2.93;;
38413;SDS011;24195;48.654;9.294;2022-09-03T03:09:34;2.97;;;2.77;;
38413;SDS011;24195;48.654;9.294;2022-09-03T03:12:00;2.90;;;2.50;;
38413;SDS011;24195;48.654;9.294;2022-09-03T03:14:26;3.07;;;2.87;;
38413;SDS011;24195;48.654;9.294;2022-09-03T03:16:51;3.10;;;2.90;;
38413;SDS011;24195;48.654;9.294;2022-09-03T03:19:17;3.03;;;2.80;;
38413;SDS011;24195;48.654;9.294;2022-09-03T03:21:42;2.70;;;2.60;;
38413;SDS011;24195;48.654;9.294;2022-09-03T03:24:08;3.37;;;3.07;;
38413;SDS011;24195;48.654;9.294;2022-09-03T03:26:34;2.77;;;2.57;;
38413;SDS011;24195;48.654;9.294;2022-09-03T03:29:00;6.13;;;3.10;;
38413;SDS011;24195;48.654;9.294;2022-09-03T03:31:28;2.67;;;2.53;;
38413;SDS011;24195;48.654;9.294;2022-09-03T03:33:56;4.50;;;3.10;;
38413;SDS011;24195;48.654;9.294;2022-09-03T03:36:24;2.97;;;2.77;;
38413;SDS011;24195;48.654;9.294;2022-09-03T03:38:54;3.97;;;2.80;;
38413;SDS011;24195;48.654;9.294;2022-09-03T03:41:32;2.67;;;2.57;;
38413;SDS011;24195;48.654;9.294;2022-09-03T03:43:59;4.50;;;3.07;;
38413;SDS011;24195;48.654;9.294;2022-09-03T03:46:39;3.50;;;3.30;;
38413;SDS011;24195;48.654;9.294;2022-09-03T03:49:08;3.20;;;3.00;;
38413;SDS011;24195;48.654;9.294;2022-09-03T03:51:37;3.30;;;3.10;;
38413;SDS011;24195;48.654;9.294;2022-09-03T03:54:04;3.37;;;3.07;;
38413;SDS011;24195;48.654;9.294;2022-09-03T03:56:35;2.93;;;2.73;;
38413;SDS011;24195;48.654;9.294;2022-09-03T03:59:01;3.03;;;2.87;;
38413;SDS011;24195;48.654;9.294;2022-09-03T04:01:27;2.87;;;2.67;;
38413;SDS011;24195;48.654;9.294;2022-09-03T04:03:56;2.97;;;2.87;;
38413;SDS011;24195;48.654;9.294;2022-09-03T04:06:39;3.30;;;3.00;;
38413;SDS011;24195;48.654;9.294;2022-09-03T04:09:25;3.60;;;3.30;;
38413;SDS011;24195;48.654;9.294;2022-09-03T04:11:53;4.10;;;3.13;;
38413;SDS011;24195;48.654;9.294;2022-09-03T04:14:20;3.20;;;3.00;;
38413;SDS011;24195;48.654;9.294;2022-09-03T04:16:46;2.67;;;2.57;;
38413;SDS011;24195;48.654;9.294;2022-09-03T04:19:12;3.20;;;2.90;;
38413;SDS011;24195;48.654;9.294;2022-09-03T04:21:37;3.20;;;3.00;;
38413;SDS011;24195;48.654;9.294;2022-09-03T04:24:04;3.23;;;3.03;;
38413;SDS011;24195;48.654;9.294;2022-09-03T04:26:30;3.03;;;2.83;;
38413;SDS011;24195;48.654;9.294;2022-09-03T04:29:01;3.47;;;3.17;;
38413;SDS011;24195;48.654;9.294;2022-09-03T04:31:36;2.93;;;2.70;;
38413;SDS011;24195;48.654;9.294;2022-09-03T04:34:03;4.60;;;2.87;;
38413;SDS011;24195;48.654;9.294;2022-09-03T04:36:31;3.50;;;3.30;;
38413;SDS011;24195;48.654;9.294;2022-09-03T04:38:59;2.80;;;2.60;;
38413;SDS011;24195;48.654;9.294;2022-09-03T04:41:26;3.33;;;2.80;;
38413;SDS011;24195;48.654;9.294;2022-09-03T04:43:54;3.40;;;3.20;;
38413;SDS011;24195;48.654;9.294;2022-09-03T04:46:22;3.43;;;3.23;;
38413;SDS011;24195;48.654;9.294;2022-09-03T04:48:57;3.60;;;3.30;;
38413;SDS011;24195;48.654;9.294;2022-09-03T04:51:24;3.07;;;2.83;;
38413;SDS011;24195;48.654;9.294;2022-09-03T04:54:09;3.00;;;2.80;;
38413;SDS011;24195;48.654;9.294;2022-09-03T04:56:35;3.73;;;3.53;;
38413;SDS011;24195;48.654;9.294;2022-09-03T04:59:06;3.23;;;3.00;;
38413;SDS011;24195;48.654;9.294;2022-09-03T05:01:34;3.30;;;3.00;;
38413;SDS011;24195;48.654;9.294;2022-09-03T05:04:01;3.30;;;3.10;;
38413;SDS011;24195;48.654;9.294;2022-09-03T05:06:28;3.40;;;3.10;;
38413;SDS011;24195;48.654;9.294;2022-09-03T05:08:55;3.13;;;2.93;;
38413;SDS011;24195;48.654;9.294;2022-09-03T05:11:22;3.20;;;3.00;;
38413;SDS011;24195;48.654;9.294;2022-09-03T05:13:49;3.47;;;3.27;;
38413;SDS011;24195;48.654;9.294;2022-09-03T05:16:16;3.30;;;3.10;;
38413;SDS011;24195;48.654;9.294;2022-09-03T05:18:42;3.40;;;3.10;;
38413;SDS011;24195;48.654;9.294;2022-09-03T05:21:09;2.90;;;2.70;;
38413;SDS011;24195;48.654;9.294;2022-09-03T05:23:39;2.83;;;2.73;;
38413;SDS011;24195;48.654;9.294;2022-09-03T05:26:08;3.10;;;2.90;;
38413;SDS011;24195;48.654;9.294;2022-09-03T05:28:39;3.00;;;2.80;;
38413;SDS011;24195;48.654;9.294;2022-09-03T05:31:10;3.70;;;2.90;;
38413;SDS011;24195;48.654;9.294;2022-09-03T05:33:44;3.27;;;2.80;;
38413;SDS011;24195;48.654;9.294;2022-09-03T05:36:16;3.07;;;2.87;;
38413;SDS011;24195;48.654;9.294;2022-09-03T05:38:43;4.67;;;4.27;;
38413;SDS011;24195;48.654;9.294;2022-09-03T05:41:15;3.70;;;3.40;;
38413;SDS011;24195;48.654;9.294;2022-09-03T05:43:56;3.70;;;3.40;;
38413;SDS011;24195;48.654;9.294;2022-09-03T05:46:29;3.67;;;3.47;;
38413;SDS011;24195;48.654;9.294;2022-09-03T05:49:03;3.73;;;3.53;;
38413;SDS011;24195;48.654;9.294;2022-09-03T05:51:38;3.10;;;2.97;;
38413;SDS011;24195;48.654;9.294;2022-09-03T05:54:07;3.40;;;3.10;;
38413;SDS011;24195;48.654;9.294;2022-09-03T05:56:36;3.33;;;3.13;;
38413;SDS011;24195;48.654;9.294;2022-09-03T05:59:13;3.43;;;3.23;;
38413;SDS011;24195;48.654;9.294;2022-09-03T06:01:44;3.60;;;3.30;;
38413;SDS011;24195;48.654;9.294;2022-09-03T06:04:11;3.27;;;2.70;;
38413;SDS011;24195;48.654;9.294;2022-09-03T06:06:39;3.83;;;3.53;;
38413;SDS011;24195;48.654;9.294;2022-09-03T06:09:10;3.73;;;3.40;;
38413;SDS011;24195;48.654;9.294;2022-09-03T06:11:41;3.30;;;3.10;;
38413;SDS011;24195;48.654;9.294;2022-09-03T06:14:12;3.20;;;3.00;;
38413;SDS011;24195;48.654;9.294;2022-09-03T06:16:40;2.83;;;2.63;;
38413;SDS011;24195;48.654;9.294;2022-09-03T06:19:08;3.10;;;2.90;;
38413;SDS011;24195;48.654;9.294;2022-09-03T06:21:35;3.93;;;3.43;;
38413;SDS011;24195;48.654;9.294;2022-09-03T06:24:01;4.00;;;3.20;;
38413;SDS011;24195;48.654;9.294;2022-09-03T06:26:27;3.70;;;3.40;;
38413;SDS011;24195;48.654;9.294;2022-09-03T06:28:53;4.17;;;3.77;;
38413;SDS011;24195;48.654;9.294;2022-09-03T06:31:20;5.00;;;4.03;;
38413;SDS011;24195;48.654;9.294;2022-09-03T06:33:46;3.80;;;3.60;;
38413;SDS011;24195;48.654;9.294;2022-09-03T06:36:13;3.87;;;3.57;;
38413;SDS011;24195;48.654;9.294;2022-09-03T06:38:41;4.37;;;4.07;;
38413;SDS011;24195;48.654;9.294;2022-09-03T06:41:18;4.10;;;3.80;;
38413;SDS011;24195;48.654;9.294;2022-09-03T06:43:49;4.60;;;4.20;;
38413;SDS011;24195;48.654;9.294;2022-09-03T06:46:19;4.20;;;4.00;;
38413;SDS011;24195;48.654;9.294;2022-09-03T06:48:47;4.10;;;3.80;;
38413;SDS011;24195;48.654;9.294;2022-09-03T06:51:13;4.30;;;4.00;;
38413;SDS011;24195;48.654;9.294;2022-09-03T06:53:42;4.30;;;3.90;;
38413;SDS011;24195;48.654;9.294;2022-09-03T06:56:13;4.27;;;3.87;;
38413;SDS011;24195;48.654;9.294;2022-09-03T06:58:44;3.93;;;3.63;;
38413;SDS011;24195;48.654;9.294;2022-09-03T07:01:12;6.63;;;4.03;;
38413;SDS011;24195;48.654;9.294;2022-09-03T07:03:41;4.50;;;4.20;;
38413;SDS011;24195;48.654;9.294;2022-09-03T07:06:08;3.87;;;3.57;;
38413;SDS011;24195;48.654;9.294;2022-09-03T07:08:39;4.50;;;4.10;;
38413;SDS011;24195;48.654;9.294;2022-09-03T07:11:06;3.63;;;3.40;;
38413;SDS011;24195;48.654;9.294;2022-09-03T07:13:38;4.60;;;4.03;;
38413;SDS011;24195;48.654;9.294;2022-09-03T07:16:07;3.70;;;3.50;;
38413;SDS011;24195;48.654;9.294;2022-09-03T07:18:37;4.00;;;3.70;;
38413;SDS011;24195;48.654;9.294;2022-09-03T07:21:04;4.17;;;3.90;;
38413;SDS011;24195;48.654;9.294;2022-09-03T07:23:32;3.73;;;3.43;;
38413;SDS011;24195;48.654;9.294;2022-09-03T07:25:59;3.70;;;3.50;;
38413;SDS011;24195;48.654;9.294;2022-09-03T07:28:27;3.67;;;3.47;;
38413;SDS011;24195;48.654;9.294;2022-09-03T07:30:59;3.80;;;3.60;;
38413;SDS011;24195;48.654;9.294;2022-09-03T07:33:27;4.53;;;4.13;;
38413;SDS011;24195;48.654;9.294;2022-09-03T07:35:53;4.73;;;4.23;;
38413;SDS011;24195;48.654;9.294;2022-09-03T07:38:19;4.90;;;4.43;;
38413;SDS011;24195;48.654;9.294;2022-09-03T07:40:46;4.20;;;3.90;;
38413;SDS011;24195;48.654;9.294;2022-09-03T07:43:12;4.37;;;4.07;;
38413;SDS011;24195;48.654;9.294;2022-09-03T07:45:37;4.27;;;3.90;;
38413;SDS011;24195;48.654;9.294;2022-09-03T07:48:03;3.93;;;3.73;;
38413;SDS011;24195;48.654;9.294;2022-09-03T07:50:29;4.57;;;4.27;;
38413;SDS011;24195;48.654;9.294;2022-09-03T07:53:01;4.20;;;3.80;;
38413;SDS011;24195;48.654;9.294;2022-09-03T07:55:27;4.93;;;4.20;;
38413;SDS011;24195;48.654;9.294;2022-09-03T07:57:56;4.17;;;3.90;;
38413;SDS011;24195;48.654;9.294;2022-09-03T08:00:23;4.30;;;4.00;;
38413;SDS011;24195;48.654;9.294;2022-09-03T08:02:53;4.10;;;3.80;;
38413;SDS011;24195;48.654;9.294;2022-09-03T08:05:18;4.07;;;3.50;;
38413;SDS011;24195;48.654;9.294;2022-09-03T08:07:45;5.07;;;3.50;;
38413;SDS011;24195;48.654;9.294;2022-09-03T08:10:11;6.70;;;3.87;;
38413;SDS011;24195;48.654;9.294;2022-09-03T08:12:37;6.07;;;3.50;;
38413;SDS011;24195;48.654;9.294;2022-09-03T08:15:02;3.97;;;3.67;;
38413;SDS011;24195;48.654;9.294;2022-09-03T08:17:29;3.83;;;3.47;;
38413;SDS011;24195;48.654;9.294;2022-09-03T08:19:54;4.20;;;3.77;;
38413;SDS011;24195;48.654;9.294;2022-09-03T08:22:21;3.40;;;3.20;;
38413;SDS011;24195;48.654;9.294;2022-09-03T08:24:49;4.43;;;3.80;;
38413;SDS011;24195;48.654;9.294;2022-09-03T08:27:15;4.10;;;3.80;;
38413;SDS011;24195;48.654;9.294;2022-09-03T08:29:40;3.87;;;3.57;;
38413;SDS011;24195;48.654;9.294;2022-09-03T08:32:06;3.80;;;3.50;;
38413;SDS011;24195;48.654;9.294;2022-09-03T08:34:31;3.70;;;3.50;;
38413;SDS011;24195;48.654;9.294;2022-09-03T08:36:57;4.20;;;3.80;;
38413;SDS011;24195;48.654;9.294;2022-09-03T08:39:25;3.60;;;3.40;;
38413;SDS011;24195;48.654;9.294;2022-09-03T08:44:50;3.90;;;3.40;;
38413;SDS011;24195;48.654;9.294;2022-09-03T08:47:33;3.50;;;3.30;;
38413;SDS011;24195;48.654;9.294;2022-09-03T08:50:10;4.20;;;3.83;;
38413;SDS011;24195;48.654;9.294;2022-09-03T08:52:47;4.10;;;3.80;;
38413;SDS011;24195;48.654;9.294;2022-09-03T08:55:30;4.07;;;3.87;;
38413;SDS011;24195;48.654;9.294;2022-09-03T08:58:04;3.10;;;2.90;;
38413;SDS011;24195;48.654;9.294;2022-09-03T09:12:12;3.80;;;3.50;;
38413;SDS011;24195;48.654;9.294;2022-09-03T09:20:47;3.73;;;3.27;;
38413;SDS011;24195;48.654;9.294;2022-09-03T09:23:39;3.30;;;3.10;;
38413;SDS011;24195;48.654;9.294;2022-09-03T09:26:14;3.47;;;3.17;;
38413;SDS011;24195;48.654;9.294;2022-09-03T09:28:43;4.10;;;3.70;;
38413;SDS011;24195;48.654;9.294;2022-09-03T09:31:13;3.40;;;3.20;;
38413;SDS011;24195;48.654;9.294;2022-09-03T09:33:40;4.57;;;3.40;;
38413;SDS011;24195;48.654;9.294;2022-09-03T09:36:07;3.30;;;3.10;;
38413;SDS011;24195;48.654;9.294;2022-09-03T09:38:36;3.50;;;3.30;;
38413;SDS011;24195;48.654;9.294;2022-09-03T09:43:40;4.23;;;3.90;;
38413;SDS011;24195;48.654;9.294;2022-09-03T09:46:21;4.27;;;3.97;;
38413;SDS011;24195;48.654;9.294;2022-09-03T09:48:53;4.00;;;3.80;;
38413;SDS011;24195;48.654;9.294;2022-09-03T09:51:21;4.00;;;3.70;;
38413;SDS011;24195;48.654;9.294;2022-09-03T09:54:00;3.97;;;3.77;;
38413;SDS011;24195;48.654;9.294;2022-09-03T09:56:44;4.17;;;3.77;;
38413;SDS011;24195;48.654;9.294;2022-09-03T09:59:11;4.23;;;3.93;;
38413;SDS011;24195;48.654;9.294;2022-09-03T10:01:39;3.60;;;3.40;;
38413;SDS011;24195;48.654;9.294;2022-09-03T10:06:55;3.90;;;3.60;;
38413;SDS011;24195;48.654;9.294;2022-09-03T10:09:26;3.47;;;3.13;;
38413;SDS011;24195;48.654;9.294;2022-09-03T10:14:34;3.70;;;3.50;;
38413;SDS011;24195;48.654;9.294;2022-09-03T10:20:33;3.80;;;3.50;;
38413;SDS011;24195;48.654;9.294;2022-09-03T10:23:23;3.30;;;3.10;;
38413;SDS011;24195;48.654;9.294;2022-09-03T10:26:06;3.57;;;3.27;;
38413;SDS011;24195;48.654;9.294;2022-09-03T10:28:36;3.50;;;3.27;;
38413;SDS011;24195;48.654;9.294;2022-09-03T10:37:18;3.97;;;3.67;;
38413;SDS011;24195;48.654;9.294;2022-09-03T10:45:02;4.10;;;3.70;;
38413;SDS011;24195;48.654;9.294;2022-09-03T10:47:41;4.60;;;4.30;;
38413;SDS011;24195;48.654;9.294;2022-09-03T10:50:16;4.70;;;3.77;;
38413;SDS011;24195;48.654;9.294;2022-09-03T10:55:46;3.83;;;3.53;;
38413;SDS011;24195;48.654;9.294;2022-09-03T11:07:13;4.47;;;4.10;;
38413;SDS011;24195;48.654;9.294;2022-09-03T11:09:53;10.80;;;6.10;;
38413;SDS011;24195;48.654;9.294;2022-09-03T11:12:28;4.07;;;3.80;;
38413;SDS011;24195;48.654;9.294;2022-09-03T11:15:00;3.53;;;3.33;;
38413;SDS011;24195;48.654;9.294;2022-09-03T11:17:59;3.90;;;3.60;;
38413;SDS011;24195;48.654;9.294;2022-09-03T11:20:27;4.17;;;3.87;;
38413;SDS011;24195;48.654;9.294;2022-09-03T11:22:58;10.30;;;5.40;;
38413;SDS011;24195;48.654;9.294;2022-09-03T11:25:45;33.23;;;16.73;;
38413;SDS011;24195;48.654;9.294;2022-09-03T11:31:15;4.60;;;4.30;;
38413;SDS011;24195;48.654;9.294;2022-09-03T11:34:47;5.27;;;4.90;;
38413;SDS011;24195;48.654;9.294;2022-09-03T11:37:18;4.73;;;4.43;;
38413;SDS011;24195;48.654;9.294;2022-09-03T11:39:44;4.30;;;4.00;;
38413;SDS011;24195;48.654;9.294;2022-09-03T11:44:50;4.57;;;4.17;;
38413;SDS011;24195;48.654;9.294;2022-09-03T11:47:23;3.90;;;3.63;;
38413;SDS011;24195;48.654;9.294;2022-09-03T11:50:06;3.70;;;3.40;;
38413;SDS011;24195;48.654;9.294;2022-09-03T11:52:41;4.40;;;4.10;;
38413;SDS011;24195;48.654;9.294;2022-09-03T11:55:07;4.00;;;3.70;;
38413;SDS011;24195;48.654;9.294;2022-09-03T11:57:33;4.67;;;4.27;;
38413;SDS011;24195;48.654;9.294;2022-09-03T12:00:09;4.43;;;4.03;;
38413;SDS011;24195;48.654;9.294;2022-09-03T12:02:36;4.70;;;4.30;;
38413;SDS011;24195;48.654;9.294;2022-09-03T12:05:29;4.53;;;3.70;;
38413;SDS011;24195;48.654;9.294;2022-09-03T12:11:26;4.53;;;4.20;;
38413;SDS011;24195;48.654;9.294;2022-09-03T12:19:55;3.93;;;1.87;;
38413;SDS011;24195;48.654;9.294;2022-09-03T12:22:26;6.27;;;1.80;;
38413;SDS011;24195;48.654;9.294;2022-09-03T12:24:55;2.93;;;1.73;;
38413;SDS011;24195;48.654;9.294;2022-09-03T12:27:32;3.73;;;2.00;;
38413;SDS011;24195;48.654;9.294;2022-09-03T12:29:59;3.13;;;2.20;;
38413;SDS011;24195;48.654;9.294;2022-09-03T12:34:56;2.60;;;2.37;;
38413;SDS011;24195;48.654;9.294;2022-09-03T12:37:23;2.00;;;1.80;;
38413;SDS011;24195;48.654;9.294;2022-09-03T12:39:51;3.07;;;2.80;;
38413;SDS011;24195;48.654;9.294;2022-09-03T12:42:28;2.60;;;2.03;;
38413;SDS011;24195;48.654;9.294;2022-09-03T12:45:04;3.17;;;2.07;;
38413;SDS011;24195;48.654;9.294;2022-09-03T12:47:36;2.60;;;2.20;;
38413;SDS011;24195;48.654;9.294;2022-09-03T12:50:07;3.40;;;2.37;;
38413;SDS011;24195;48.654;9.294;2022-09-03T12:52:36;2.30;;;1.97;;
38413;SDS011;24195;48.654;9.294;2022-09-03T13:00:26;2.03;;;1.83;;
38413;SDS011;24195;48.654;9.294;2022-09-03T13:03:05;3.50;;;2.03;;
38413;SDS011;24195;48.654;9.294;2022-09-03T13:05:58;3.23;;;2.03;;
38413;SDS011;24195;48.654;9.294;2022-09-03T13:08:31;3.23;;;1.90;;
38413;SDS011;24195;48.654;9.294;2022-09-03T13:11:02;2.07;;;1.70;;
38413;SDS011;24195;48.654;9.294;2022-09-03T13:13:33;3.03;;;1.47;;
38413;SDS011;24195;48.654;9.294;2022-09-03T13:21:28;1.90;;;1.50;;
38413;SDS011;24195;48.654;9.294;2022-09-03T13:27:43;1.30;;;1.10;;
38413;SDS011;24195;48.654;9.294;2022-09-03T13:30:29;2.93;;;1.67;;
38413;SDS011;24195;48.654;9.294;2022-09-03T13:35:52;1.87;;;1.43;;
38413;SDS011;24195;48.654;9.294;2022-09-03T13:41:13;2.43;;;1.63;;
38413;SDS011;24195;48.654;9.294;2022-09-03T13:43:51;1.40;;;1.23;;
38413;SDS011;24195;48.654;9.294;2022-09-03T13:46:22;2.23;;;1.13;;
38413;SDS011;24195;48.654;9.294;2022-09-03T13:49:25;2.10;;;1.40;;
38413;SDS011;24195;48.654;9.294;2022-09-03T13:52:19;1.07;;;0.97;;
38413;SDS011;24195;48.654;9.294;2022-09-03T13:55:06;2.10;;;1.10;;
38413;SDS011;24195;48.654;9.294;2022-09-03T13:57:38;0.97;;;0.97;;
38413;SDS011;24195;48.654;9.294;2022-09-03T14:00:21;1.70;;;1.17;;
38413;SDS011;24195;48.654;9.294;2022-09-03T14:09:14;1.57;;;0.90;;
38413;SDS011;24195;48.654;9.294;2022-09-03T14:14:54;1.07;;;0.80;;
38413;SDS011;24195;48.654;9.294;2022-09-03T14:17:43;1.03;;;1.00;;
38413;SDS011;24195;48.654;9.294;2022-09-03T14:20:27;1.23;;;1.13;;
38413;SDS011;24195;48.654;9.294;2022-09-03T14:22:57;1.03;;;1.03;;
38413;SDS011;24195;48.654;9.294;2022-09-03T14:25:31;0.90;;;0.90;;
38413;SDS011;24195;48.654;9.294;2022-09-03T14:31:11;1.20;;;1.10;;
38413;SDS011;24195;48.654;9.294;2022-09-03T14:33:53;4.37;;;1.27;;
38413;SDS011;24195;48.654;9.294;2022-09-03T14:36:37;1.43;;;1.10;;
38413;SDS011;24195;48.654;9.294;2022-09-03T14:39:29;1.40;;;1.10;;
38413;SDS011;24195;48.654;9.294;2022-09-03T14:50:18;2.57;;;1.47;;
38413;SDS011;24195;48.654;9.294;2022-09-03T14:53:10;1.20;;;1.10;;
38413;SDS011;24195;48.654;9.294;2022-09-03T14:55:50;1.10;;;1.00;;
38413;SDS011;24195;48.654;9.294;2022-09-03T15:01:31;1.50;;;1.40;;
38413;SDS011;24195;48.654;9.294;2022-09-03T15:06:38;1.50;;;1.40;;
38413;SDS011;24195;48.654;9.294;2022-09-03T15:09:27;1.10;;;1.00;;
38413;SDS011;24195;48.654;9.294;2022-09-03T15:15:17;1.60;;;1.50;;
38413;SDS011;24195;48.654;9.294;2022-09-03T15:17:54;1.30;;;1.10;;
38413;SDS011;24195;48.654;9.294;2022-09-03T15:26:18;1.40;;;1.30;;
38413;SDS011;24195;48.654;9.294;2022-09-03T15:29:41;1.43;;;1.33;;
38413;SDS011;24195;48.654;9.294;2022-09-03T15:32:20;1.20;;;1.10;;
38413;SDS011;24195;48.654;9.294;2022-09-03T15:37:51;1.43;;;1.23;;
38413;SDS011;24195;48.654;9.294;2022-09-03T15:43:25;1.20;;;1.20;;
38413;SDS011;24195;48.654;9.294;2022-09-03T15:45:54;1.90;;;0.90;;
38413;SDS011;24195;48.654;9.294;2022-09-03T15:48:37;1.30;;;1.10;;
38413;SDS011;24195;48.654;9.294;2022-09-03T15:51:51;1.53;;;1.20;;
38413;SDS011;24195;48.654;9.294;2022-09-03T15:54:45;0.80;;;0.80;;
38413;SDS011;24195;48.654;9.294;2022-09-03T15:57:30;1.10;;;0.97;;
38413;SDS011;24195;48.654;9.294;2022-09-03T16:03:01;1.43;;;1.20;;
38413;SDS011;24195;48.654;9.294;2022-09-03T16:05:46;1.43;;;1.33;;
38413;SDS011;24195;48.654;9.294;2022-09-03T16:08:21;1.30;;;1.20;;
38413;SDS011;24195;48.654;9.294;2022-09-03T16:11:27;1.20;;;1.13;;
38413;SDS011;24195;48.654;9.294;2022-09-03T16:14:11;1.83;;;1.00;;
38413;SDS011;24195;48.654;9.294;2022-09-03T16:17:04;1.00;;;1.00;;
38413;SDS011;24195;48.654;9.294;2022-09-03T16:19:43;1.17;;;1.07;;
38413;SDS011;24195;48.654;9.294;2022-09-03T16:22:26;1.43;;;1.33;;
38413;SDS011;24195;48.654;9.294;2022-09-03T16:24:57;1.50;;;1.40;;
38413;SDS011;24195;48.654;9.294;2022-09-03T16:27:41;1.83;;;1.40;;
38413;SDS011;24195;48.654;9.294;2022-09-03T16:38:59;1.43;;;1.33;;
38413;SDS011;24195;48.654;9.294;2022-09-03T16:41:56;2.00;;;1.90;;
38413;SDS011;24195;48.654;9.294;2022-09-03T16:44:43;1.83;;;1.40;;
38413;SDS011;24195;48.654;9.294;2022-09-03T16:53:15;1.53;;;1.30;;
38413;SDS011;24195;48.654;9.294;2022-09-03T16:55:56;1.00;;;1.00;;
38413;SDS011;24195;48.654;9.294;2022-09-03T16:58:34;1.40;;;1.27;;
38413;SDS011;24195;48.654;9.294;2022-09-03T17:01:43;2.07;;;1.20;;
38413;SDS011;24195;48.654;9.294;2022-09-03T17:07:16;1.67;;;1.57;;
38413;SDS011;24195;48.654;9.294;2022-09-03T17:15:29;2.33;;;2.13;;
38413;SDS011;24195;48.654;9.294;2022-09-03T17:26:11;2.40;;;1.83;;
38413;SDS011;24195;48.654;9.294;2022-09-03T17:29:12;1.60;;;1.50;;
38413;SDS011;24195;48.654;9.294;2022-09-03T17:37:18;1.50;;;1.40;;
38413;SDS011;24195;48.654;9.294;2022-09-03T17:49:22;2.70;;;1.57;;
38413;SDS011;24195;48.654;9.294;2022-09-03T17:52:23;1.33;;;1.20;;
38413;SDS011;24195;48.654;9.294;2022-09-03T17:54:59;1.33;;;1.23;;
38413;SDS011;24195;48.654;9.294;2022-09-03T17:57:47;1.77;;;1.43;;
38413;SDS011;24195;48.654;9.294;2022-09-03T18:01:10;4.87;;;4.40;;
38413;SDS011;24195;48.654;9.294;2022-09-03T18:06:07;2.33;;;1.50;;
38413;SDS011;24195;48.654;9.294;2022-09-03T18:08:40;1.50;;;1.40;;
38413;SDS011;24195;48.654;9.294;2022-09-03T18:16:30;1.63;;;1.30;;
38413;SDS011;24195;48.654;9.294;2022-09-03T18:19:01;1.50;;;1.40;;
38413;SDS011;24195;48.654;9.294;2022-09-03T18:21:28;2.07;;;1.87;;
38413;SDS011;24195;48.654;9.294;2022-09-03T18:24:33;4.40;;;1.70;;
38413;SDS011;24195;48.654;9.294;2022-09-03T18:27:38;2.20;;;1.60;;
38413;SDS011;24195;48.654;9.294;2022-09-03T18:30:25;1.80;;;1.70;;
38413;SDS011;24195;48.654;9.294;2022-09-03T18:33:09;1.57;;;1.23;;
38413;SDS011;24195;48.654;9.294;2022-09-03T18:35:54;2.30;;;1.40;;
38413;SDS011;24195;48.654;9.294;2022-09-03T18:38:40;4.77;;;1.80;;
38413;SDS011;24195;48.654;9.294;2022-09-03T18:50:47;1.60;;;1.50;;
38413;SDS011;24195;48.654;9.294;2022-09-03T18:56:58;1.73;;;1.63;;
38413;SDS011;24195;48.654;9.294;2022-09-03T19:03:35;1.60;;;1.50;;
38413;SDS011;24195;48.654;9.294;2022-09-03T19:09:00;1.90;;;1.53;;
38413;SDS011;24195;48.654;9.294;2022-09-03T19:15:28;2.40;;;1.93;;
38413;SDS011;24195;48.654;9.294;2022-09-03T19:21:40;2.53;;;2.33;;
38413;SDS011;24195;48.654;9.294;2022-09-03T19:24:50;1.80;;;1.70;;
38413;SDS011;24195;48.654;9.294;2022-09-03T19:27:43;2.40;;;2.07;;
38413;SDS011;24195;48.654;9.294;2022-09-03T19:30:46;2.40;;;2.30;;
38413;SDS011;24195;48.654;9.294;2022-09-03T19:39:40;4.00;;;3.10;;
38413;SDS011;24195;48.654;9.294;2022-09-03T19:42:49;3.73;;;2.70;;
38413;SDS011;24195;48.654;9.294;2022-09-03T19:45:45;2.70;;;2.50;;
38413;SDS011;24195;48.654;9.294;2022-09-03T19:55:37;2.80;;;2.23;;
38413;SDS011;24195;48.654;9.294;2022-09-03T19:58:25;3.60;;;1.90;;
38413;SDS011;24195;48.654;9.294;2022-09-03T20:01:13;2.40;;;2.13;;
38413;SDS011;24195;48.654;9.294;2022-09-03T20:04:02;1.63;;;1.53;;
38413;SDS011;24195;48.654;9.294;2022-09-03T20:06:54;4.80;;;2.50;;